createdAt,value
2023-12-23T00:01:16.629Z,95317.60
2023-12-23T00:03:50.070Z,95317.00
2023-12-23T00:06:18.557Z,95312.00
2023-12-23T00:08:46.711Z,95322.00
2023-12-23T00:11:14.933Z,95332.20
2023-12-23T00:13:43.292Z,95319.80
2023-12-23T00:16:11.536Z,95323.00
2023-12-23T00:18:39.784Z,95320.40
2023-12-23T00:21:08.491Z,95311.80
2023-12-23T00:23:36.829Z,95293.60
2023-12-23T00:26:05.469Z,95283.00
2023-12-23T00:28:33.816Z,95276.00
2023-12-23T00:31:02.142Z,95278.00
2023-12-23T00:33:30.244Z,95279.60
2023-12-23T00:35:58.674Z,95278.60
2023-12-23T00:38:26.822Z,95287.20
2023-12-23T00:40:56.348Z,95274.20
2023-12-23T00:43:24.417Z,95279.00
2023-12-23T00:45:53.295Z,95267.00
2023-12-23T00:48:21.613Z,95261.80
2023-12-23T00:50:50.263Z,95250.60
2023-12-23T00:53:18.370Z,95265.00
2023-12-23T00:55:46.747Z,95272.40
2023-12-23T00:58:14.916Z,95272.20
2023-12-23T01:00:43.140Z,95276.00
2023-12-23T01:03:11.431Z,95267.80
2023-12-23T01:05:39.554Z,95259.20
2023-12-23T01:08:07.853Z,95265.80
2023-12-23T01:10:36.221Z,95273.40
2023-12-23T01:13:04.446Z,95277.20
2023-12-23T01:15:32.689Z,95274.20
2023-12-23T01:18:00.993Z,95261.80
2023-12-23T01:20:29.373Z,95258.80
2023-12-23T01:22:57.607Z,95252.20
2023-12-23T01:25:25.814Z,95251.40
2023-12-23T01:27:54.135Z,95254.00
2023-12-23T01:30:24.239Z,95255.20
2023-12-23T01:32:52.441Z,95253.20
2023-12-23T01:35:20.662Z,95245.60
2023-12-23T01:37:49.052Z,95238.00
2023-12-23T01:40:17.470Z,95227.60
2023-12-23T01:42:45.810Z,95235.40
2023-12-23T01:45:13.896Z,95220.80
2023-12-23T01:47:42.871Z,95213.20
2023-12-23T01:50:11.176Z,95211.80
2023-12-23T01:52:39.727Z,95209.80
2023-12-23T01:55:08.988Z,95214.20
2023-12-23T01:57:37.174Z,95216.60
2023-12-23T02:00:07.027Z,95230.40
2023-12-23T02:02:41.637Z,95234.00
2023-12-23T02:05:11.117Z,95237.40
2023-12-23T02:07:46.324Z,95232.80
2023-12-23T02:10:14.941Z,95234.00
2023-12-23T02:12:49.444Z,95215.80
2023-12-23T02:15:17.932Z,95205.80
2023-12-23T02:17:46.262Z,95195.20
2023-12-23T02:20:19.746Z,95184.40
2023-12-23T02:22:48.265Z,95181.80
2023-12-23T02:25:16.617Z,95164.80
2023-12-23T02:27:47.479Z,95135.40
2023-12-23T02:30:19.776Z,95141.60
2023-12-23T02:32:48.404Z,95151.80
2023-12-23T02:35:16.879Z,95166.80
2023-12-23T02:37:45.125Z,95164.80
2023-12-23T02:40:15.422Z,95160.40
2023-12-23T02:42:45.654Z,95159.40
2023-12-23T02:45:18.005Z,95166.60
2023-12-23T02:47:46.540Z,95161.60
2023-12-23T02:50:16.970Z,95145.20
2023-12-23T02:52:45.193Z,95146.40
2023-12-23T02:55:13.384Z,95142.00
2023-12-23T02:57:44.505Z,95150.60
2023-12-23T03:00:15.544Z,95167.20
2023-12-23T03:02:43.663Z,95159.40
2023-12-23T03:05:12.006Z,95170.80
2023-12-23T03:07:40.314Z,95168.60
2023-12-23T03:10:09.184Z,95163.60
2023-12-23T03:12:37.622Z,95169.40
2023-12-23T03:15:06.573Z,95164.80
2023-12-23T03:17:38.216Z,95163.00
2023-12-23T03:20:10.237Z,95162.00
2023-12-23T03:22:38.652Z,95155.60
2023-12-23T03:25:07.990Z,95157.00
2023-12-23T03:27:45.328Z,95163.60
2023-12-23T03:30:16.380Z,95169.40
2023-12-23T03:32:44.649Z,95169.80
2023-12-23T03:35:15.273Z,95157.20
2023-12-23T03:37:43.619Z,95154.60
2023-12-23T03:40:15.926Z,95152.00
2023-12-23T03:42:44.018Z,95144.80
2023-12-23T03:45:20.342Z,95137.20
2023-12-23T03:47:48.678Z,95152.80
2023-12-23T03:50:19.636Z,95151.80
2023-12-23T03:52:47.961Z,95149.40
2023-12-23T03:55:30.448Z,95152.00
2023-12-23T03:58:10.038Z,95148.20
2023-12-23T04:00:40.747Z,95133.80
2023-12-23T04:03:09.465Z,95140.80
2023-12-23T04:05:40.324Z,95152.00
2023-12-23T04:08:08.529Z,95143.80
2023-12-23T04:10:39.292Z,95146.20
2023-12-23T04:13:07.438Z,95137.00
2023-12-23T04:15:36.000Z,95134.20
2023-12-23T04:18:07.074Z,95139.40
2023-12-23T04:20:51.067Z,95126.20
2023-12-23T04:23:22.497Z,95134.00
2023-12-23T04:25:50.808Z,95131.80
2023-12-23T04:28:26.328Z,95136.60
2023-12-23T04:31:02.174Z,95145.80
2023-12-23T04:33:30.698Z,95149.60
2023-12-23T04:36:02.155Z,95140.20
2023-12-23T04:38:30.336Z,95160.40
2023-12-23T04:40:58.451Z,95182.80
2023-12-23T04:43:26.954Z,95187.00
2023-12-23T04:45:55.168Z,95186.60
2023-12-23T04:48:23.385Z,95185.00
2023-12-23T04:50:51.539Z,95186.60
2023-12-23T04:53:22.095Z,95190.00
2023-12-23T04:55:50.724Z,95201.00
2023-12-23T04:58:18.930Z,95199.60
2023-12-23T05:00:48.799Z,95209.80
2023-12-23T05:03:17.035Z,95209.00
2023-12-23T05:05:45.585Z,95215.60
2023-12-23T05:08:18.199Z,95224.20
2023-12-23T05:10:46.936Z,95229.00
2023-12-23T05:13:15.660Z,95240.40
2023-12-23T05:15:43.723Z,95243.20
2023-12-23T05:18:11.780Z,95264.40
2023-12-23T05:20:39.894Z,95251.80
2023-12-23T05:23:07.996Z,95258.40
2023-12-23T05:25:36.704Z,95265.80
2023-12-23T05:28:05.213Z,95281.20
2023-12-23T05:30:36.481Z,95287.20
2023-12-23T05:33:07.307Z,95290.20
2023-12-23T05:35:35.381Z,95300.20
2023-12-23T05:38:04.780Z,95305.00
2023-12-23T05:40:33.236Z,95305.60
2023-12-23T05:43:03.451Z,95301.20
2023-12-23T05:45:31.556Z,95296.40
2023-12-23T05:47:59.773Z,95300.00
2023-12-23T05:50:27.892Z,95296.60
2023-12-23T05:52:56.134Z,95310.80
2023-12-23T05:55:24.214Z,95333.60
2023-12-23T05:57:52.252Z,95347.20
2023-12-23T06:00:21.406Z,95361.60
2023-12-23T06:02:49.884Z,95359.60
2023-12-23T06:05:18.639Z,95368.60
2023-12-23T06:07:47.654Z,95373.20
2023-12-23T06:10:16.000Z,95378.60
2023-12-23T06:12:44.073Z,95369.40
2023-12-23T06:15:12.297Z,95368.60
2023-12-23T06:17:40.446Z,95383.60
2023-12-23T06:20:09.181Z,95383.60
2023-12-23T06:22:37.302Z,95388.60
2023-12-23T06:25:06.288Z,95388.00
2023-12-23T06:27:34.312Z,95387.00
2023-12-23T06:30:02.387Z,95395.20
2023-12-23T06:32:30.692Z,95397.00
2023-12-23T06:34:58.809Z,95398.40
2023-12-23T06:37:26.917Z,95397.80
2023-12-23T06:39:54.988Z,95405.00
2023-12-23T06:42:23.211Z,95393.80
2023-12-23T06:44:51.680Z,95408.00
2023-12-23T06:47:20.024Z,95422.40
2023-12-23T06:49:48.486Z,95430.00
2023-12-23T06:52:16.699Z,95434.60
2023-12-23T06:54:44.648Z,95444.40
2023-12-23T06:57:12.653Z,95449.80
2023-12-23T06:59:40.900Z,95449.20
2023-12-23T07:02:09.129Z,95441.60
2023-12-23T07:04:37.228Z,95440.60
2023-12-23T07:07:05.378Z,95442.20
2023-12-23T07:09:33.576Z,95456.20
2023-12-23T07:12:01.793Z,95466.60
2023-12-23T07:14:29.991Z,95463.40
2023-12-23T07:16:58.210Z,95457.80
2023-12-23T07:19:26.334Z,95464.40
2023-12-23T07:21:54.885Z,95456.20
2023-12-23T07:24:23.244Z,95462.00
2023-12-23T07:26:51.395Z,95477.20
2023-12-23T07:29:20.507Z,95489.00
2023-12-23T07:31:48.818Z,95496.60
2023-12-23T07:34:18.629Z,95494.20
2023-12-23T07:36:46.818Z,95514.20
2023-12-23T07:39:15.634Z,95522.00
2023-12-23T07:41:43.773Z,95522.60
2023-12-23T07:44:11.947Z,95531.20
2023-12-23T07:46:40.014Z,95531.80
2023-12-23T07:49:08.927Z,95544.20
2023-12-23T07:51:37.024Z,95557.20
2023-12-23T07:54:05.589Z,95560.00
2023-12-23T07:56:34.107Z,95562.40
2023-12-23T07:59:02.359Z,95571.80
2023-12-23T08:01:30.445Z,95567.80
2023-12-23T08:03:58.672Z,95568.20
2023-12-23T08:06:26.856Z,95571.60
2023-12-23T08:08:55.057Z,95567.40
2023-12-23T08:11:25.108Z,95573.20
2023-12-23T08:13:53.302Z,95566.40
2023-12-23T08:16:21.446Z,95574.60
2023-12-23T08:18:49.733Z,95583.20
2023-12-23T08:21:17.977Z,95582.60
2023-12-23T08:23:46.089Z,95585.00
2023-12-23T08:26:14.377Z,95584.40
2023-12-23T08:28:45.210Z,95585.20
2023-12-23T08:31:14.808Z,95589.20
2023-12-23T08:33:42.993Z,95595.80
2023-12-23T08:36:11.264Z,95601.20
2023-12-23T08:38:42.037Z,95595.60
2023-12-23T08:41:11.670Z,95601.20
2023-12-23T08:43:39.788Z,95602.40
2023-12-23T08:46:07.923Z,95611.80
2023-12-23T08:48:36.299Z,95612.80
2023-12-23T08:51:04.961Z,95621.40
2023-12-23T08:53:33.032Z,95614.40
2023-12-23T08:56:03.296Z,95622.20
2023-12-23T08:58:32.062Z,95617.40
2023-12-23T09:01:00.273Z,95625.20
2023-12-23T09:03:30.376Z,95629.60
2023-12-23T09:05:59.474Z,95630.60
2023-12-23T09:08:27.848Z,95625.00
2023-12-23T09:10:56.287Z,95625.20
2023-12-23T09:13:24.440Z,95636.40
2023-12-23T09:15:52.599Z,95633.40
2023-12-23T09:18:20.871Z,95632.60
2023-12-23T09:20:49.045Z,95638.40
2023-12-23T09:23:17.146Z,95640.20
2023-12-23T09:25:45.341Z,95641.40
2023-12-23T09:28:15.204Z,95645.60
2023-12-23T09:30:43.255Z,95646.80
2023-12-23T09:33:11.991Z,95650.20
2023-12-23T09:35:40.141Z,95646.60
2023-12-23T09:38:08.296Z,95653.40
2023-12-23T09:40:36.480Z,95662.80
2023-12-23T09:43:05.601Z,95669.80
2023-12-23T09:45:37.720Z,95677.00
2023-12-23T09:48:06.415Z,95680.40
2023-12-23T09:50:34.619Z,95686.40
2023-12-23T09:53:03.051Z,95682.40
2023-12-23T09:55:32.233Z,95682.40
2023-12-23T09:58:01.574Z,95674.20
2023-12-23T10:00:29.762Z,95681.60
2023-12-23T10:02:57.922Z,95678.80
2023-12-23T10:05:30.656Z,95671.00
2023-12-23T10:07:59.173Z,95670.40
2023-12-23T10:10:27.496Z,95667.60
2023-12-23T10:12:56.027Z,95674.00
2023-12-23T10:15:24.214Z,95680.60
2023-12-23T10:17:53.808Z,95668.20
2023-12-23T10:20:22.287Z,95686.80
2023-12-23T10:22:50.697Z,95682.00
2023-12-23T10:25:19.163Z,95679.20
2023-12-23T10:27:47.188Z,95680.00
2023-12-23T10:30:15.227Z,95684.00
2023-12-23T10:32:43.383Z,95685.00
2023-12-23T10:35:15.505Z,95690.40
2023-12-23T10:37:43.881Z,95696.80
2023-12-23T10:40:19.330Z,95756.40
2023-12-23T10:42:47.655Z,95787.20
2023-12-23T10:45:15.997Z,95808.60
2023-12-23T10:47:44.239Z,95824.20
2023-12-23T10:50:12.472Z,95837.80
2023-12-23T10:52:40.490Z,95837.00
2023-12-23T10:55:09.002Z,95830.00
2023-12-23T10:57:37.801Z,95823.20
2023-12-23T11:00:07.239Z,95808.40
2023-12-23T11:02:36.581Z,95811.80
2023-12-23T11:05:07.739Z,95803.20
2023-12-23T11:07:39.425Z,95813.60
2023-12-23T11:10:08.268Z,95825.80
2023-12-23T11:12:36.420Z,95815.20
2023-12-23T11:15:05.599Z,95817.20
2023-12-23T11:17:36.060Z,95814.80
2023-12-23T11:20:04.882Z,95814.20
2023-12-23T11:22:38.671Z,95802.60
2023-12-23T11:25:40.589Z,95795.40
2023-12-23T11:28:11.778Z,95788.40
2023-12-23T11:30:50.143Z,95807.40
2023-12-23T11:33:26.410Z,95807.00
2023-12-23T11:35:59.020Z,95795.40
2023-12-23T11:38:29.880Z,95800.60
2023-12-23T11:40:58.183Z,95811.60
2023-12-23T11:43:26.404Z,95805.80
2023-12-23T11:45:54.583Z,95807.80
2023-12-23T11:48:23.481Z,95812.40
2023-12-23T11:50:57.135Z,95808.80
2023-12-23T11:53:25.306Z,95806.60
2023-12-23T11:55:53.965Z,95800.80
2023-12-23T11:58:23.479Z,95798.00
2023-12-23T12:00:53.109Z,95801.40
2023-12-23T12:03:21.977Z,95803.80
2023-12-23T12:05:50.737Z,95801.00
2023-12-23T12:08:18.970Z,95807.00
2023-12-23T12:10:47.456Z,95812.00
2023-12-23T12:13:15.611Z,95812.20
2023-12-23T12:15:43.718Z,95818.80
2023-12-23T12:18:15.639Z,95816.80
2023-12-23T12:20:43.997Z,95810.20
2023-12-23T12:23:14.033Z,95806.80
2023-12-23T12:25:51.355Z,95809.80
2023-12-23T12:28:19.597Z,95815.00
2023-12-23T12:30:48.617Z,95814.60
2023-12-23T12:33:17.085Z,95824.80
2023-12-23T12:35:46.536Z,95826.80
2023-12-23T12:38:20.449Z,95824.60
2023-12-23T12:40:53.016Z,95831.00
2023-12-23T12:43:25.146Z,95827.40
2023-12-23T12:45:53.147Z,95826.20
2023-12-23T12:48:21.306Z,95837.20
2023-12-23T12:50:49.807Z,95842.80
2023-12-23T12:53:18.002Z,95852.00
2023-12-23T12:55:46.086Z,95863.80
2023-12-23T12:58:14.183Z,95865.40
2023-12-23T13:00:42.299Z,95863.60
2023-12-23T13:03:10.875Z,95864.40
2023-12-23T13:05:39.586Z,95866.80
2023-12-23T13:08:07.959Z,95870.80
2023-12-23T13:10:36.078Z,95869.80
2023-12-23T13:13:04.651Z,95877.80
2023-12-23T13:15:32.672Z,95884.60
2023-12-23T13:18:01.436Z,95879.40
2023-12-23T13:20:29.763Z,95882.80
2023-12-23T13:22:57.939Z,95877.80
2023-12-23T13:25:26.125Z,95876.80
2023-12-23T13:27:54.249Z,95877.60
2023-12-23T13:30:22.408Z,95868.40
2023-12-23T13:32:50.926Z,95869.60
2023-12-23T13:35:19.380Z,95879.00
2023-12-23T13:37:48.344Z,95877.60
2023-12-23T13:40:16.580Z,95878.60
2023-12-23T13:42:44.722Z,95872.20
2023-12-23T13:45:15.898Z,95870.20
2023-12-23T13:47:44.258Z,95880.00
2023-12-23T13:50:12.729Z,95882.60
2023-12-23T13:52:40.941Z,95884.20
2023-12-23T13:55:09.393Z,95882.60
2023-12-23T13:57:38.114Z,95891.40
2023-12-23T14:00:07.986Z,95884.80
2023-12-23T14:02:36.269Z,95883.60
2023-12-23T14:05:04.640Z,95874.00
2023-12-23T14:07:32.700Z,95874.00
2023-12-23T14:10:01.011Z,95867.40
2023-12-23T14:12:29.133Z,95876.20
2023-12-23T14:14:57.336Z,95878.60
2023-12-23T14:17:25.589Z,95880.80
2023-12-23T14:19:53.904Z,95883.80
2023-12-23T14:22:22.081Z,95879.00
2023-12-23T14:24:50.116Z,95879.40
2023-12-23T14:27:18.282Z,95883.20
2023-12-23T14:29:49.792Z,95876.60
2023-12-23T14:32:18.474Z,95873.60
2023-12-23T14:34:46.772Z,95874.00
2023-12-23T14:37:14.832Z,95882.00
2023-12-23T14:39:42.929Z,95887.60
2023-12-23T14:42:11.618Z,95887.60
2023-12-23T14:44:39.616Z,95893.40
2023-12-23T14:47:07.658Z,95898.00
2023-12-23T14:49:35.991Z,95890.40
2023-12-23T14:52:04.257Z,95892.00
2023-12-23T14:54:32.254Z,95893.00
2023-12-23T14:57:00.505Z,95900.20
2023-12-23T14:59:31.111Z,95894.60
2023-12-23T15:01:59.539Z,95896.20
2023-12-23T15:04:28.298Z,95895.60
2023-12-23T15:06:56.864Z,95896.80
2023-12-23T15:09:24.895Z,95901.80
2023-12-23T15:11:52.915Z,95894.60
2023-12-23T15:14:21.761Z,95901.80
2023-12-23T15:16:49.974Z,95901.40
2023-12-23T15:19:18.367Z,95904.20
2023-12-23T15:21:46.787Z,95913.60
2023-12-23T15:24:14.912Z,95909.20
2023-12-23T15:26:43.024Z,95906.60
2023-12-23T15:29:11.720Z,95917.60
2023-12-23T15:31:39.942Z,95918.20
2023-12-23T15:34:08.038Z,95910.40
2023-12-23T15:36:36.061Z,95911.20
2023-12-23T15:39:04.269Z,95909.60
2023-12-23T15:41:32.553Z,95913.60
2023-12-23T15:44:01.174Z,95912.60
2023-12-23T15:46:29.282Z,95917.20
2023-12-23T15:48:57.413Z,95922.80
2023-12-23T15:51:25.497Z,95924.00
2023-12-23T15:53:53.768Z,95929.00
2023-12-23T15:56:22.084Z,95927.00
2023-12-23T15:58:50.365Z,95936.80
2023-12-23T16:01:18.505Z,95942.40
2023-12-23T16:03:46.745Z,95939.80
2023-12-23T16:06:18.674Z,95929.40
2023-12-23T16:08:47.106Z,95931.20
2023-12-23T16:11:15.361Z,95940.40
2023-12-23T16:13:48.660Z,95941.20
2023-12-23T16:16:17.027Z,95933.20
2023-12-23T16:18:45.768Z,95940.00
2023-12-23T16:21:14.315Z,95941.20
2023-12-23T16:23:42.545Z,95942.40
2023-12-23T16:26:17.576Z,95942.40
2023-12-23T16:28:46.577Z,95942.60
2023-12-23T16:31:15.080Z,95956.40
2023-12-23T16:33:43.433Z,95952.00
2023-12-23T16:36:15.517Z,95949.40
2023-12-23T16:38:43.748Z,95957.60
2023-12-23T16:41:13.403Z,95966.20
2023-12-23T16:43:41.748Z,95955.60
2023-12-23T16:46:09.968Z,95968.20
2023-12-23T16:48:38.640Z,95970.80
2023-12-23T16:51:07.305Z,95970.20
2023-12-23T16:53:35.461Z,95979.00
2023-12-23T16:56:05.505Z,95980.20
2023-12-23T16:58:34.040Z,95986.20
2023-12-23T17:01:02.209Z,95993.80
2023-12-23T17:03:30.506Z,95997.80
2023-12-23T17:05:58.855Z,96000.20
2023-12-23T17:08:27.940Z,96006.60
2023-12-23T17:10:56.062Z,96017.00
2023-12-23T17:13:25.397Z,96014.40
2023-12-23T17:15:53.480Z,96021.20
2023-12-23T17:18:21.489Z,96021.20
2023-12-23T17:20:49.664Z,96024.40
2023-12-23T17:23:17.875Z,96027.00
2023-12-23T17:25:47.603Z,96025.00
2023-12-23T17:28:16.244Z,96032.00
2023-12-23T17:30:44.464Z,96038.00
2023-12-23T17:33:14.339Z,96044.60
2023-12-23T17:35:42.881Z,96049.00
2023-12-23T17:38:11.055Z,96047.40
2023-12-23T17:40:39.279Z,96047.00
2023-12-23T17:43:08.112Z,96052.20
2023-12-23T17:45:36.392Z,96054.40
2023-12-23T17:48:07.492Z,96055.40
2023-12-23T17:50:36.699Z,96054.40
2023-12-23T17:53:05.066Z,96059.40
2023-12-23T17:55:33.233Z,96065.80
2023-12-23T17:58:01.402Z,96062.20
2023-12-23T18:00:29.582Z,96060.60
2023-12-23T18:02:57.993Z,96056.80
2023-12-23T18:05:26.090Z,96047.80
2023-12-23T18:07:56.619Z,96047.00
2023-12-23T18:10:24.982Z,96050.00
2023-12-23T18:12:53.386Z,96045.00
2023-12-23T18:15:21.744Z,96049.00
2023-12-23T18:17:50.240Z,96057.40
2023-12-23T18:20:18.587Z,96057.40
2023-12-23T18:22:48.785Z,96054.00
2023-12-23T18:25:17.073Z,96057.00
2023-12-23T18:27:45.273Z,96056.80
2023-12-23T18:30:13.696Z,96050.60
2023-12-23T18:32:44.510Z,96045.40
2023-12-23T18:35:15.983Z,96047.60
2023-12-23T18:37:47.530Z,96051.40
2023-12-23T18:40:16.499Z,96053.80
2023-12-23T18:42:44.681Z,96054.40
2023-12-23T18:45:17.807Z,96048.20
2023-12-23T18:47:48.007Z,96048.60
2023-12-23T18:50:19.369Z,96047.40
2023-12-23T18:52:47.605Z,96051.40
2023-12-23T18:55:15.998Z,96053.60
2023-12-23T18:57:44.095Z,96053.60
2023-12-23T19:00:13.357Z,96054.80
2023-12-23T19:02:42.167Z,96059.80
2023-12-23T19:05:10.646Z,96053.20
2023-12-23T19:07:39.029Z,96053.60
2023-12-23T19:10:07.554Z,96059.00
2023-12-23T19:12:38.119Z,96051.40
2023-12-23T19:15:07.182Z,96051.80
2023-12-23T19:17:35.443Z,96051.00
2023-12-23T19:20:04.208Z,96053.40
2023-12-23T19:22:32.489Z,96055.60
2023-12-23T19:25:09.560Z,96054.60
2023-12-23T19:27:40.103Z,96059.00
2023-12-23T19:30:09.024Z,96061.40
2023-12-23T19:32:41.852Z,96054.60
2023-12-23T19:35:12.753Z,96058.00
2023-12-23T19:37:43.827Z,96059.00
2023-12-23T19:40:12.822Z,96052.20
2023-12-23T19:42:41.547Z,96065.20
2023-12-23T19:45:10.159Z,96061.80
2023-12-23T19:47:38.432Z,96058.20
2023-12-23T19:50:08.222Z,96059.80
2023-12-23T19:52:36.536Z,96062.20
2023-12-23T19:55:05.258Z,96059.60
2023-12-23T19:57:33.686Z,96056.80
2023-12-23T20:00:03.717Z,96064.20
2023-12-23T20:02:32.770Z,96063.20
2023-12-23T20:05:04.554Z,96073.00
2023-12-23T20:07:35.559Z,96079.20
2023-12-23T20:10:04.449Z,96071.60
2023-12-23T20:12:34.033Z,96080.20
2023-12-23T20:15:02.220Z,96076.00
2023-12-23T20:17:30.483Z,96077.20
2023-12-23T20:19:58.922Z,96081.00
2023-12-23T20:22:27.125Z,96086.20
2023-12-23T20:24:55.261Z,96082.00
2023-12-23T20:27:23.379Z,96079.60
2023-12-23T20:29:51.555Z,96081.20
2023-12-23T20:32:19.740Z,96086.80
2023-12-23T20:34:47.987Z,96086.40
2023-12-23T20:37:16.188Z,96083.60
2023-12-23T20:39:45.531Z,96089.20
2023-12-23T20:42:14.082Z,96092.20
2023-12-23T20:44:42.294Z,96091.80
2023-12-23T20:47:10.581Z,96095.20
2023-12-23T20:49:41.168Z,96098.80
2023-12-23T20:52:09.372Z,96099.60
2023-12-23T20:54:40.576Z,96095.60
2023-12-23T20:57:11.416Z,96100.40
2023-12-23T20:59:39.636Z,96113.20
2023-12-23T21:02:08.710Z,96111.60
2023-12-23T21:04:40.233Z,96114.80
2023-12-23T21:07:11.283Z,96119.80
2023-12-23T21:09:39.479Z,96124.20
2023-12-23T21:12:09.086Z,96121.80
2023-12-23T21:14:39.261Z,96127.60
2023-12-23T21:17:10.205Z,96129.40
2023-12-23T21:19:38.405Z,96134.20
2023-12-23T21:22:06.563Z,96144.00
2023-12-23T21:24:34.673Z,96147.60
2023-12-23T21:27:02.687Z,96147.80
2023-12-23T21:29:30.914Z,96147.20
2023-12-23T21:31:59.320Z,96151.20
2023-12-23T21:34:29.328Z,96144.60
2023-12-23T21:37:00.055Z,96149.80
2023-12-23T21:39:28.607Z,96157.00
2023-12-23T21:41:56.856Z,96159.20
2023-12-23T21:44:26.347Z,96163.40
2023-12-23T21:46:56.636Z,96159.00
2023-12-23T21:49:25.192Z,96156.00
2023-12-23T21:51:53.416Z,96155.80
2023-12-23T21:54:21.409Z,96157.00
2023-12-23T21:56:49.473Z,96159.60
2023-12-23T21:59:17.809Z,96157.60
2023-12-23T22:01:46.162Z,96163.60
2023-12-23T22:04:14.402Z,96162.00
2023-12-23T22:06:44.274Z,96160.60
2023-12-23T22:09:12.382Z,96168.60
2023-12-23T22:11:40.535Z,96171.20
2023-12-23T22:14:09.595Z,96173.60
2023-12-23T22:16:37.860Z,96174.00
2023-12-23T22:19:06.055Z,96178.60
2023-12-23T22:21:34.208Z,96181.20
2023-12-23T22:24:02.314Z,96187.60
2023-12-23T22:26:30.386Z,96189.40
2023-12-23T22:28:58.454Z,96192.60
2023-12-23T22:31:26.645Z,96192.40
2023-12-23T22:33:57.690Z,96201.00
2023-12-23T22:36:25.922Z,96205.00
2023-12-23T22:38:54.122Z,96212.20
2023-12-23T22:41:22.159Z,96222.20
2023-12-23T22:43:50.212Z,96225.00
2023-12-23T22:46:18.342Z,96222.20
2023-12-23T22:48:46.675Z,96225.60
2023-12-23T22:51:14.986Z,96233.20
2023-12-23T22:53:43.868Z,96235.40
2023-12-23T22:56:11.958Z,96236.80
2023-12-23T22:58:40.112Z,96235.60
2023-12-23T23:01:15.161Z,96236.80
2023-12-23T23:03:44.025Z,96240.20
2023-12-23T23:06:13.146Z,96246.80
2023-12-23T23:08:41.579Z,96239.80
2023-12-23T23:11:09.837Z,96238.80
2023-12-23T23:13:38.267Z,96247.60
2023-12-23T23:16:06.916Z,96255.80
2023-12-23T23:18:35.103Z,96255.40
2023-12-23T23:21:03.694Z,96256.80
2023-12-23T23:23:32.496Z,96255.20
2023-12-23T23:26:00.649Z,96255.00
2023-12-23T23:28:28.714Z,96253.80
2023-12-23T23:30:56.969Z,96253.40
2023-12-23T23:33:25.315Z,96253.60
2023-12-23T23:35:55.314Z,96259.80
2023-12-23T23:38:23.684Z,96259.80
2023-12-23T23:40:51.897Z,96256.80
2023-12-23T23:43:20.198Z,96259.80
2023-12-23T23:45:48.369Z,96269.40
2023-12-23T23:48:16.634Z,96261.60
2023-12-23T23:50:44.860Z,96259.80
2023-12-23T23:53:13.791Z,96272.60
2023-12-23T23:55:42.897Z,96286.80
2023-12-23T23:58:11.193Z,96294.40
